createdAt,value
2019-04-26T00:01:11.802Z,64.76
2019-04-26T00:03:46.286Z,64.83
2019-04-26T00:09:23.828Z,64.70
2019-04-26T00:12:14.514Z,64.67
2019-04-26T00:14:48.818Z,65.27
2019-04-26T00:17:23.301Z,65.88
2019-04-26T00:19:56.420Z,66.30
2019-04-26T00:22:29.317Z,67.04
2019-04-26T00:25:01.812Z,67.31
2019-04-26T00:27:36.022Z,67.93
2019-04-26T00:30:10.687Z,68.37
2019-04-26T00:32:44.460Z,67.72
2019-04-26T00:35:17.739Z,67.49
2019-04-26T00:37:50.378Z,67.72
2019-04-26T00:40:23.071Z,68.06
2019-04-26T00:42:57.659Z,67.89
2019-04-26T00:45:35.292Z,69.00
2019-04-26T00:48:08.978Z,68.89
2019-04-26T00:50:41.923Z,68.89
2019-04-26T00:53:17.621Z,69.64
2019-04-26T00:55:51.736Z,69.38
2019-04-26T00:58:25.541Z,69.95
2019-04-26T01:00:57.253Z,68.98
2019-04-26T01:03:29.698Z,70.26
2019-04-26T01:06:03.898Z,70.20
2019-04-26T01:08:36.496Z,70.89
2019-04-26T01:11:47.819Z,71.46
2019-04-26T01:14:20.395Z,71.46
2019-04-26T01:16:52.221Z,71.81
2019-04-26T01:19:26.611Z,71.81
2019-04-26T01:22:02.478Z,71.55
2019-04-26T01:24:37.766Z,71.39
2019-04-26T01:27:12.283Z,71.53
2019-04-26T01:29:47.392Z,71.93
2019-04-26T01:32:22.080Z,71.30
2019-04-26T01:34:57.297Z,71.30
2019-04-26T01:37:31.985Z,71.48
2019-04-26T01:40:11.642Z,72.08
2019-04-26T01:42:56.304Z,71.77
2019-04-26T01:45:32.112Z,71.72
2019-04-26T01:48:13.853Z,71.72
2019-04-26T01:50:46.342Z,70.38
2019-04-26T01:53:21.030Z,72.25
2019-04-26T01:55:53.837Z,71.70
2019-04-26T01:58:27.293Z,71.70
2019-04-26T02:01:04.775Z,72.04
2019-04-26T02:03:38.046Z,72.04
2019-04-26T02:06:10.609Z,72.22
2019-04-26T02:08:43.295Z,72.21
2019-04-26T02:11:15.645Z,72.28
2019-04-26T02:13:48.872Z,72.28
2019-04-26T02:16:21.375Z,71.55
2019-04-26T02:18:53.509Z,70.96
2019-04-26T02:21:30.249Z,72.04
2019-04-26T02:24:05.533Z,71.54
2019-04-26T02:26:45.374Z,71.60
2019-04-26T02:29:28.588Z,72.69
2019-04-26T02:32:07.285Z,72.69
2019-04-26T02:34:41.049Z,72.93
2019-04-26T02:37:16.621Z,72.93
2019-04-26T02:39:49.298Z,72.76
2019-04-26T02:42:39.306Z,72.87
2019-04-26T02:45:34.765Z,70.69
2019-04-26T02:48:22.383Z,70.69
2019-04-26T02:51:01.842Z,70.72
2019-04-26T02:53:46.536Z,70.72
2019-04-26T02:56:45.375Z,72.39
2019-04-26T02:59:38.256Z,72.91
2019-04-26T03:02:16.552Z,73.19
2019-04-26T03:04:51.757Z,73.00
2019-04-26T03:07:53.504Z,72.21
2019-04-26T03:10:32.700Z,72.21
2019-04-26T03:13:12.593Z,72.87
2019-04-26T03:15:55.476Z,72.58
2019-04-26T03:18:43.046Z,71.35
2019-04-26T03:21:39.507Z,71.39
2019-04-26T03:24:42.448Z,72.56
2019-04-26T03:27:43.484Z,71.56
2019-04-26T03:30:51.770Z,72.64
2019-04-26T03:34:10.930Z,73.84
2019-04-26T03:37:40.454Z,73.34
2019-04-26T03:40:51.594Z,72.17
2019-04-26T03:43:55.605Z,72.24
2019-04-26T03:46:53.686Z,71.99
2019-04-26T03:50:05.531Z,72.40
2019-04-26T03:53:19.405Z,72.73
2019-04-26T03:56:24.292Z,72.89
2019-04-26T03:59:12.317Z,72.34
2019-04-26T04:01:53.555Z,72.34
2019-04-26T04:04:38.878Z,72.41
2019-04-26T04:07:18.261Z,73.39
2019-04-26T04:10:00.503Z,73.39
2019-04-26T04:12:46.313Z,73.76
2019-04-26T04:15:52.319Z,73.99
2019-04-26T04:18:32.339Z,71.56
2019-04-26T04:22:00.295Z,72.87
2019-04-26T04:24:57.295Z,70.52
2019-04-26T04:27:45.778Z,71.03
2019-04-26T04:30:27.372Z,71.03
2019-04-26T04:33:13.035Z,72.96
2019-04-26T04:35:57.518Z,72.96
2019-04-26T04:39:11.338Z,71.71
2019-04-26T04:41:50.825Z,72.33
2019-04-26T04:45:04.307Z,71.71
2019-04-26T04:48:34.800Z,72.11
2019-04-26T04:51:40.874Z,71.39
2019-04-26T04:54:41.531Z,70.84
2019-04-26T04:58:06.046Z,70.84
2019-04-26T05:04:10.663Z,69.31
2019-04-26T05:07:35.645Z,69.25
2019-04-26T05:13:37.846Z,66.28
2019-04-26T05:16:46.489Z,66.28
2019-04-26T05:20:00.501Z,65.54
2019-04-26T05:23:32.329Z,65.02
2019-04-26T05:26:33.344Z,61.32
2019-04-26T05:29:49.934Z,61.32
2019-04-26T05:33:04.850Z,63.75
2019-04-26T05:36:23.451Z,64.14
2019-04-26T05:39:09.558Z,61.08
2019-04-26T05:42:30.666Z,64.77
2019-04-26T05:45:56.696Z,64.24
2019-04-26T05:49:12.114Z,62.89
2019-04-26T05:52:53.058Z,62.66
2019-04-26T05:56:03.733Z,64.36
2019-04-26T05:59:22.290Z,61.99
2019-04-26T06:02:47.605Z,60.60
2019-04-26T06:06:07.688Z,60.60
2019-04-26T06:09:26.561Z,64.19
2019-04-26T06:12:39.284Z,63.45
2019-04-26T06:15:52.865Z,61.82
2019-04-26T06:18:59.785Z,61.82
2019-04-26T06:22:10.050Z,60.38
2019-04-26T06:25:26.435Z,62.82
2019-04-26T06:28:11.602Z,62.18
2019-04-26T06:31:11.414Z,62.31
2019-04-26T06:34:02.975Z,61.04
2019-04-26T06:36:43.325Z,63.54
2019-04-26T06:39:34.657Z,63.40
2019-04-26T06:42:36.088Z,63.40
2019-04-26T06:45:20.713Z,64.14
2019-04-26T06:48:07.442Z,64.77
2019-04-26T06:51:24.943Z,64.33
2019-04-26T06:54:16.331Z,64.76
2019-04-26T06:57:18.831Z,64.16
2019-04-26T07:00:26.671Z,64.16
2019-04-26T07:03:41.367Z,63.60
2019-04-26T07:06:34.330Z,59.98
2019-04-26T07:09:11.754Z,63.51
2019-04-26T07:12:32.379Z,63.73
2019-04-26T07:15:28.802Z,65.56
2019-04-26T07:18:50.285Z,62.08
2019-04-26T07:22:19.544Z,62.08
2019-04-26T07:25:53.225Z,64.99
2019-04-26T07:28:51.051Z,67.17
2019-04-26T07:31:58.732Z,70.31
2019-04-26T07:35:18.925Z,66.16
2019-04-26T07:38:19.432Z,67.89
2019-04-26T07:41:21.569Z,68.17
2019-04-26T07:44:30.994Z,69.04
2019-04-26T07:47:43.981Z,70.02
2019-04-26T07:51:14.126Z,70.75
2019-04-26T07:54:46.552Z,71.21
2019-04-26T07:57:43.776Z,72.62
2019-04-26T08:00:44.923Z,76.22
2019-04-26T08:03:30.297Z,74.55
2019-04-26T08:06:27.141Z,76.71
2019-04-26T08:09:25.920Z,78.59
2019-04-26T08:11:58.301Z,80.43
2019-04-26T08:15:00.085Z,82.56
2019-04-26T08:17:44.440Z,82.56
2019-04-26T08:20:41.717Z,82.03
2019-04-26T08:23:38.530Z,82.07
2019-04-26T08:26:07.603Z,83.16
2019-04-26T08:28:44.611Z,82.22
2019-04-26T08:31:24.418Z,79.02
2019-04-26T08:34:02.142Z,80.33
2019-04-26T08:36:39.458Z,80.33
2019-04-26T08:39:32.390Z,81.55
2019-04-26T08:42:04.340Z,83.28
2019-04-26T08:44:42.599Z,79.22
2019-04-26T08:47:26.554Z,82.01
2019-04-26T08:50:04.254Z,82.23
2019-04-26T08:52:40.963Z,80.87
2019-04-26T08:55:16.041Z,83.19
2019-04-26T08:57:52.482Z,80.39
2019-04-26T09:00:29.631Z,80.41
2019-04-26T09:03:18.303Z,80.95
2019-04-26T09:06:04.621Z,81.51
2019-04-26T09:08:43.588Z,81.51
2019-04-26T09:11:26.035Z,80.45
2019-04-26T09:14:19.032Z,86.68
2019-04-26T09:16:53.616Z,90.65
2019-04-26T09:19:30.451Z,93.06
2019-04-26T09:22:13.641Z,94.09
2019-04-26T09:24:59.298Z,94.64
2019-04-26T09:27:45.295Z,95.00
2019-04-26T09:30:19.861Z,95.61
2019-04-26T09:32:54.329Z,95.61
2019-04-26T09:35:26.868Z,95.58
2019-04-26T09:37:59.454Z,95.55
2019-04-26T09:40:32.297Z,95.61
2019-04-26T09:43:10.487Z,95.67
2019-04-26T09:45:49.503Z,95.45
2019-04-26T09:48:23.861Z,95.45
2019-04-26T09:50:58.302Z,95.46
2019-04-26T09:53:30.329Z,95.04
2019-04-26T09:56:02.940Z,95.08
2019-04-26T09:58:35.369Z,95.08
2019-04-26T10:01:08.479Z,95.50
2019-04-26T10:03:41.049Z,96.40
2019-04-26T10:06:13.681Z,96.75
2019-04-26T10:08:47.064Z,96.93
2019-04-26T10:11:22.619Z,97.07
2019-04-26T10:13:59.218Z,97.23
2019-04-26T10:16:37.632Z,97.33
2019-04-26T10:19:11.707Z,97.41
2019-04-26T10:21:43.300Z,97.50
2019-04-26T10:24:16.904Z,97.56
2019-04-26T10:26:49.487Z,97.62
2019-04-26T10:29:25.721Z,97.72
2019-04-26T10:31:59.853Z,97.77
2019-04-26T10:34:32.050Z,97.85
2019-04-26T10:37:06.065Z,97.90
2019-04-26T10:39:41.597Z,97.86
2019-04-26T10:42:14.361Z,97.99
2019-04-26T10:44:47.218Z,97.99
2019-04-26T10:47:19.999Z,98.09
2019-04-26T10:49:54.339Z,98.11
2019-04-26T10:52:49.678Z,98.14
2019-04-26T10:55:20.444Z,98.21
2019-04-26T10:57:53.530Z,98.24
2019-04-26T11:00:28.528Z,98.29
2019-04-26T11:04:09.551Z,98.36
2019-04-26T11:06:42.370Z,98.39
2019-04-26T11:09:15.299Z,98.44
2019-04-26T11:11:48.299Z,98.47
2019-04-26T11:14:22.612Z,98.53
2019-04-26T11:16:56.296Z,98.53
2019-04-26T11:19:31.946Z,98.60
2019-04-26T11:22:03.305Z,98.60
2019-04-26T11:24:35.792Z,98.67
2019-04-26T11:27:09.802Z,98.70
2019-04-26T11:29:53.260Z,98.74
2019-04-26T11:32:17.694Z,98.79
2019-04-26T11:34:54.552Z,98.80
2019-04-26T11:37:25.641Z,98.83
2019-04-26T11:39:58.320Z,98.85
2019-04-26T11:42:31.087Z,98.90
2019-04-26T11:45:06.331Z,98.94
2019-04-26T11:47:54.298Z,98.96
2019-04-26T11:50:16.113Z,98.99
2019-04-26T11:52:50.300Z,99.03
2019-04-26T11:55:25.445Z,99.05
2019-04-26T11:57:57.674Z,99.10
2019-04-26T12:00:35.310Z,99.13
2019-04-26T12:03:08.279Z,99.18
2019-04-26T12:05:57.680Z,99.18
2019-04-26T12:08:32.049Z,99.21
2019-04-26T12:11:17.574Z,99.21
2019-04-26T12:13:40.769Z,99.25
2019-04-26T12:16:14.563Z,99.25
2019-04-26T12:18:47.883Z,99.24
2019-04-26T12:21:20.582Z,99.24
2019-04-26T12:23:55.449Z,99.24
2019-04-26T12:26:27.769Z,99.29
2019-04-26T12:29:01.728Z,99.35
2019-04-26T12:31:34.357Z,99.34
2019-04-26T12:34:06.829Z,99.39
2019-04-26T12:36:41.455Z,99.41
2019-04-26T12:39:14.452Z,99.41
2019-04-26T12:41:46.441Z,99.43
2019-04-26T12:44:19.297Z,99.42
2019-04-26T12:46:53.491Z,99.43
2019-04-26T12:49:26.045Z,99.43
2019-04-26T12:51:58.632Z,99.42
2019-04-26T12:54:30.237Z,99.36
2019-04-26T12:57:05.873Z,99.21
2019-04-26T12:59:44.277Z,98.07
2019-04-26T13:02:16.707Z,98.17
2019-04-26T13:04:47.294Z,98.17
2019-04-26T13:07:23.784Z,97.99
2019-04-26T13:10:13.226Z,97.27
2019-04-26T13:12:47.955Z,97.27
2019-04-26T13:15:53.323Z,97.31
2019-04-26T13:18:26.088Z,97.42
2019-04-26T13:22:54.178Z,97.17
2019-04-26T13:25:34.446Z,97.72
2019-04-26T13:28:01.334Z,98.11
2019-04-26T13:30:33.859Z,98.36
2019-04-26T13:33:06.522Z,98.52
2019-04-26T13:35:41.294Z,98.63
2019-04-26T13:38:13.675Z,98.74
2019-04-26T13:40:46.455Z,98.82
2019-04-26T13:43:22.671Z,98.85
2019-04-26T13:46:11.295Z,98.89
2019-04-26T13:48:52.694Z,99.06
2019-04-26T13:51:29.722Z,99.06
2019-04-26T13:54:02.335Z,98.96
2019-04-26T13:56:35.995Z,99.00
2019-04-26T13:59:09.281Z,99.00
2019-04-26T14:01:41.614Z,98.90
2019-04-26T14:04:14.359Z,98.90
2019-04-26T14:06:47.051Z,98.97
2019-04-26T14:09:19.618Z,98.94
2019-04-26T14:11:52.260Z,98.91
2019-04-26T14:14:24.703Z,98.93
2019-04-26T14:16:58.795Z,99.16
2019-04-26T14:19:31.653Z,99.16
2019-04-26T14:22:07.115Z,99.08
2019-04-26T14:24:46.360Z,99.09
2019-04-26T14:27:23.521Z,99.11
2019-04-26T14:29:55.954Z,99.11
2019-04-26T14:32:28.348Z,99.14
2019-04-26T14:35:01.496Z,99.17
2019-04-26T14:37:34.323Z,99.20
2019-04-26T14:40:17.152Z,99.13
2019-04-26T14:42:47.081Z,99.13
2019-04-26T14:45:23.653Z,99.15
2019-04-26T14:47:51.865Z,99.16
2019-04-26T14:50:28.208Z,99.13
2019-04-26T14:53:02.368Z,99.53
2019-04-26T14:55:33.506Z,99.37
2019-04-26T14:58:06.282Z,99.21
2019-04-26T15:00:43.837Z,99.21
2019-04-26T15:03:24.305Z,99.21
2019-04-26T15:06:02.905Z,99.04
2019-04-26T15:08:36.691Z,99.04
2019-04-26T15:11:09.304Z,98.74
2019-04-26T15:13:43.750Z,98.18
2019-04-26T15:16:16.300Z,95.63
2019-04-26T15:18:48.546Z,93.09
2019-04-26T15:21:22.799Z,93.09
2019-04-26T15:23:59.374Z,94.37
2019-04-26T15:26:29.967Z,94.00
2019-04-26T15:29:04.469Z,95.17
2019-04-26T15:31:37.379Z,93.33
2019-04-26T15:34:09.879Z,95.75
2019-04-26T15:36:43.426Z,93.63
2019-04-26T15:39:21.305Z,94.09
2019-04-26T15:41:54.654Z,95.45
2019-04-26T15:44:28.392Z,95.96
2019-04-26T15:50:28.614Z,95.86
2019-04-26T15:53:02.583Z,96.37
2019-04-26T15:55:49.315Z,94.86
2019-04-26T15:58:24.583Z,94.66
2019-04-26T16:00:57.813Z,94.66
2019-04-26T16:03:30.767Z,95.10
2019-04-26T16:06:07.076Z,96.31
2019-04-26T16:08:42.594Z,96.63
2019-04-26T16:11:12.858Z,95.68
2019-04-26T16:13:54.120Z,95.79
2019-04-26T16:16:20.673Z,94.60
2019-04-26T16:18:57.189Z,93.30
2019-04-26T16:21:29.864Z,78.02
2019-04-26T16:24:02.865Z,78.02
2019-04-26T16:26:36.466Z,77.04
2019-04-26T16:29:08.754Z,78.78
2019-04-26T16:31:47.298Z,78.50
2019-04-26T16:34:23.269Z,80.22
2019-04-26T16:36:55.995Z,81.08
2019-04-26T16:39:38.274Z,78.10
2019-04-26T16:42:07.345Z,76.96
2019-04-26T16:44:38.796Z,80.61
2019-04-26T16:47:13.289Z,80.40
2019-04-26T16:49:46.724Z,80.40
2019-04-26T16:52:19.439Z,80.55
2019-04-26T16:54:53.057Z,79.67
2019-04-26T16:57:26.028Z,79.62
2019-04-26T17:00:00.211Z,79.62
2019-04-26T17:02:36.975Z,79.24
2019-04-26T17:05:28.678Z,80.11
2019-04-26T17:07:47.330Z,81.20
2019-04-26T17:10:20.825Z,80.79
2019-04-26T17:12:54.455Z,80.79
2019-04-26T17:15:26.249Z,81.37
2019-04-26T17:17:58.231Z,81.88
2019-04-26T17:20:32.196Z,83.07
2019-04-26T17:23:04.699Z,83.62
2019-04-26T17:25:55.241Z,82.04
2019-04-26T17:28:26.614Z,82.85
2019-04-26T17:30:59.507Z,81.47
2019-04-26T17:33:32.722Z,82.83
2019-04-26T17:36:05.543Z,83.05
2019-04-26T17:38:39.171Z,85.76
2019-04-26T17:41:14.018Z,88.11
2019-04-26T17:43:49.096Z,88.38
2019-04-26T17:46:21.693Z,91.86
2019-04-26T17:48:55.583Z,91.86
2019-04-26T17:51:41.866Z,90.54
2019-04-26T17:54:26.609Z,90.87
2019-04-26T17:56:54.659Z,90.81
2019-04-26T17:59:33.590Z,91.24
2019-04-26T18:02:01.517Z,89.75
2019-04-26T18:04:37.412Z,88.95
2019-04-26T18:07:36.104Z,88.99
2019-04-26T18:09:46.637Z,91.04
2019-04-26T18:12:18.382Z,89.31
2019-04-26T18:14:51.139Z,90.60
2019-04-26T18:17:25.330Z,90.07
2019-04-26T18:20:15.524Z,90.34
2019-04-26T18:22:48.068Z,90.34
2019-04-26T18:25:21.074Z,90.27
2019-04-26T18:27:54.037Z,88.97
2019-04-26T18:30:27.646Z,87.28
2019-04-26T18:33:00.356Z,87.70
2019-04-26T18:35:34.312Z,87.17
2019-04-26T18:38:08.624Z,90.34
2019-04-26T18:40:58.435Z,90.34
2019-04-26T18:43:23.562Z,91.02
2019-04-26T18:45:53.271Z,89.41
2019-04-26T18:48:26.306Z,90.03
2019-04-26T18:51:00.597Z,88.51
2019-04-26T18:53:39.458Z,89.74
2019-04-26T18:56:12.643Z,90.53
2019-04-26T18:58:45.309Z,90.06
2019-04-26T19:01:19.569Z,90.77
2019-04-26T19:03:54.149Z,90.77
2019-04-26T19:06:31.564Z,91.09
2019-04-26T19:09:04.132Z,91.09
2019-04-26T19:11:37.313Z,90.88
2019-04-26T19:14:13.483Z,91.53
2019-04-26T19:16:58.703Z,91.53
2019-04-26T19:19:32.960Z,91.18
2019-04-26T19:25:01.953Z,91.28
2019-04-26T19:27:49.357Z,91.28
2019-04-26T19:30:16.735Z,91.71
2019-04-26T19:32:53.607Z,90.97
2019-04-26T19:35:29.770Z,91.15
2019-04-26T19:38:07.488Z,91.22
2019-04-26T19:40:46.569Z,90.92
2019-04-26T19:43:30.157Z,90.64
2019-04-26T19:46:17.090Z,90.20
2019-04-26T19:48:55.359Z,90.74
2019-04-26T19:51:33.370Z,89.17
2019-04-26T19:54:14.555Z,89.17
2019-04-26T19:56:51.865Z,89.06
2019-04-26T19:59:27.517Z,89.87
2019-04-26T20:02:01.560Z,89.15
2019-04-26T20:04:41.851Z,87.63
2019-04-26T20:07:16.247Z,87.31
2019-04-26T20:09:52.409Z,88.63
2019-04-26T20:12:29.493Z,89.00
2019-04-26T20:15:02.303Z,89.37
2019-04-26T20:17:38.858Z,88.43
2019-04-26T20:20:20.715Z,89.05
2019-04-26T20:22:46.286Z,89.46
2019-04-26T20:25:18.975Z,88.71
2019-04-26T20:27:53.713Z,88.71
2019-04-26T20:30:33.393Z,88.91
2019-04-26T20:33:05.993Z,88.05
2019-04-26T20:35:38.418Z,88.05
2019-04-26T20:38:11.897Z,88.85
2019-04-26T20:40:47.553Z,89.06
2019-04-26T20:43:24.477Z,89.79
2019-04-26T20:46:10.494Z,89.26
2019-04-26T20:48:30.143Z,89.26
2019-04-26T20:51:06.584Z,89.09
2019-04-26T20:53:41.104Z,88.74
2019-04-26T20:56:16.666Z,88.85
2019-04-26T20:58:47.210Z,89.29
2019-04-26T21:01:20.029Z,88.76
2019-04-26T21:03:55.491Z,88.48
2019-04-26T21:06:29.240Z,87.93
2019-04-26T21:09:08.636Z,87.44
2019-04-26T21:11:42.470Z,88.47
2019-04-26T21:14:16.055Z,86.15
2019-04-26T21:16:49.405Z,86.15
2019-04-26T21:19:22.766Z,85.88
2019-04-26T21:21:55.322Z,86.40
2019-04-26T21:24:29.267Z,87.30
2019-04-26T21:27:09.415Z,86.19
2019-04-26T21:30:01.237Z,87.51
2019-04-26T21:32:39.251Z,87.43
2019-04-26T21:35:13.778Z,87.99
2019-04-26T21:38:06.386Z,88.97
2019-04-26T21:40:40.300Z,88.89
2019-04-26T21:43:12.543Z,88.72
2019-04-26T21:45:45.685Z,88.56
2019-04-26T21:48:18.378Z,90.48
2019-04-26T21:50:51.309Z,90.54
2019-04-26T21:53:24.262Z,89.48
2019-04-26T21:55:57.295Z,89.48
2019-04-26T21:58:29.773Z,88.26
2019-04-26T22:01:11.087Z,88.26
2019-04-26T22:03:53.540Z,86.61
2019-04-26T22:06:25.125Z,87.50
2019-04-26T22:08:59.296Z,89.21
2019-04-26T22:11:30.611Z,89.21
2019-04-26T22:14:08.078Z,88.68
2019-04-26T22:16:41.379Z,88.83
2019-04-26T22:19:15.580Z,88.49
2019-04-26T22:21:54.409Z,88.65
2019-04-26T22:24:28.932Z,87.88
2019-04-26T22:27:01.447Z,88.01
2019-04-26T22:29:33.776Z,86.77
2019-04-26T22:32:06.495Z,87.97
2019-04-26T22:34:41.428Z,87.82
2019-04-26T22:37:16.168Z,88.11
2019-04-26T22:39:48.319Z,87.05
2019-04-26T22:42:23.483Z,87.82
2019-04-26T22:44:55.899Z,87.82
2019-04-26T22:47:33.982Z,87.48
2019-04-26T22:50:05.995Z,88.40
2019-04-26T22:52:40.299Z,89.33
2019-04-26T22:57:53.015Z,89.07
2019-04-26T23:00:29.456Z,89.49
2019-04-26T23:03:07.285Z,89.45
2019-04-26T23:05:43.746Z,89.36
2019-04-26T23:08:19.354Z,89.39
2019-04-26T23:10:56.335Z,89.46
2019-04-26T23:13:33.852Z,89.59
2019-04-26T23:16:11.402Z,89.77
2019-04-26T23:18:57.628Z,89.77
2019-04-26T23:21:37.327Z,90.87
2019-04-26T23:24:17.535Z,89.77
2019-04-26T23:26:47.462Z,89.77
2019-04-26T23:29:19.875Z,89.18
2019-04-26T23:31:55.244Z,88.96
2019-04-26T23:34:27.078Z,87.74
2019-04-26T23:36:59.885Z,86.49
2019-04-26T23:39:32.847Z,86.49
2019-04-26T23:42:06.304Z,86.65
2019-04-26T23:44:41.177Z,89.12
2019-04-26T23:47:22.494Z,89.82
2019-04-26T23:50:04.319Z,89.43
2019-04-26T23:52:38.270Z,89.02
2019-04-26T23:55:10.953Z,90.00
2019-04-26T23:57:43.534Z,90.00
